createdAt,value
2023-04-14T00:04:52.216Z,4.1
2023-04-14T00:08:54.935Z,4.1
2023-04-14T00:15:00.061Z,4.09
2023-04-14T00:19:03.870Z,4.09
2023-04-14T00:23:06.525Z,4.09
2023-04-14T00:25:08.412Z,4.09
2023-04-14T00:29:11.327Z,4.09
2023-04-14T00:31:13.238Z,4.09
2023-04-14T00:33:14.484Z,4.09
2023-04-14T00:35:16.446Z,4.09
2023-04-14T00:41:20.775Z,4.09
2023-04-14T00:43:22.132Z,4.09
2023-04-14T00:47:25.351Z,4.08
2023-04-14T00:51:28.349Z,4.09
2023-04-14T00:57:32.864Z,4.09
2023-04-14T01:01:35.837Z,4.08
2023-04-14T01:03:37.773Z,4.08
2023-04-14T01:07:41.144Z,4.08
2023-04-14T01:11:44.657Z,4.08
2023-04-14T01:13:45.758Z,4.08
2023-04-14T01:15:46.978Z,4.08
2023-04-14T01:17:48.418Z,4.08
2023-04-14T01:18:32.340Z,4.08
2023-04-14T01:24:36.088Z,4.08
2023-04-14T01:28:38.699Z,4.08
2023-04-14T01:34:43.697Z,4.07
2023-04-14T01:38:46.467Z,4.08
2023-04-14T01:40:48.279Z,4.08
2023-04-14T01:44:52.090Z,4.08
2023-04-14T01:48:55.598Z,4.07
2023-04-14T01:50:57.282Z,4.07
2023-04-14T01:54:59.596Z,4.07
2023-04-14T02:01:03.640Z,4.07
2023-04-14T02:07:07.919Z,4.07
2023-04-14T02:11:11.317Z,4.07
2023-04-14T02:17:15.669Z,4.07
2023-04-14T02:21:18.821Z,4.07
2023-04-14T02:23:20.020Z,4.07
2023-04-14T02:27:23.486Z,4.07
2023-04-14T02:31:26.087Z,4.07
2023-04-14T02:33:27.633Z,4.07
2023-04-14T02:37:30.617Z,4.06
2023-04-14T02:43:34.922Z,4.07
2023-04-14T02:49:40.281Z,4.06
2023-04-14T02:53:43.501Z,4.06
2023-04-14T02:59:48.228Z,4.07
2023-04-14T03:05:52.927Z,4.06
2023-04-14T03:09:55.484Z,4.06
2023-04-14T03:13:58.213Z,4.06
2023-04-14T03:15:59.643Z,4.06
2023-04-14T03:20:02.583Z,4.06
2023-04-14T03:22:04.045Z,4.06
2023-04-14T03:24:05.826Z,4.06
2023-04-14T03:26:06.984Z,4.06
2023-04-14T03:32:11.144Z,4.06
2023-04-14T03:34:13.105Z,4.06
2023-04-14T03:38:15.846Z,4.06
2023-04-14T03:42:18.974Z,4.06
2023-04-14T03:48:23.310Z,4.06
2023-04-14T03:52:26.258Z,4.06
2023-04-14T03:54:27.390Z,4.06
2023-04-14T03:58:30.794Z,4.05
2023-04-14T04:02:33.790Z,4.05
2023-04-14T04:04:35.592Z,4.05
2023-04-14T04:08:39.096Z,4.06
2023-04-14T04:14:44.828Z,4.05
2023-04-14T04:20:49.695Z,4.05
2023-04-14T04:24:52.220Z,4.05
2023-04-14T04:30:57.509Z,4.05
2023-04-14T04:35:00.745Z,4.05
2023-04-14T04:37:02.173Z,4.04
2023-04-14T04:41:05.127Z,4.04
2023-04-14T04:47:08.428Z,4.04
2023-04-14T04:51:11.059Z,4.04
2023-04-14T04:57:16.226Z,4.04
2023-04-14T05:03:21.985Z,4.04
2023-04-14T05:07:25.342Z,4.04
2023-04-14T05:13:30.638Z,4.04
2023-04-14T05:17:33.773Z,4.04
2023-04-14T05:19:35.393Z,4.04
2023-04-14T05:23:38.509Z,4.04
2023-04-14T05:27:41.289Z,4.04
2023-04-14T05:29:42.521Z,4.04
2023-04-14T05:33:45.952Z,4.04
2023-04-14T05:39:50.923Z,4.04
2023-04-14T05:45:55.597Z,4.04
2023-04-14T05:49:58.834Z,4.04
2023-04-14T05:56:03.709Z,4.03
2023-04-14T06:00:06.607Z,4.03
2023-04-14T06:02:08.020Z,4.03
2023-04-14T06:06:10.030Z,4.03
2023-04-14T06:10:13.358Z,4.03
2023-04-14T06:12:14.507Z,4.03
2023-04-14T06:16:16.972Z,4.03
2023-04-14T06:22:21.586Z,4.03
2023-04-14T06:24:22.786Z,4.04
2023-04-14T06:28:25.790Z,4.04
2023-04-14T06:32:29.391Z,4.04
2023-04-14T06:38:33.452Z,4.05
2023-04-14T06:42:36.936Z,4.06
2023-04-14T06:44:38.371Z,4.06
2023-04-14T06:48:41.079Z,4.07
2023-04-14T06:52:44.012Z,4.06
2023-04-14T06:54:45.735Z,4.06
2023-04-14T06:58:48.866Z,4.07
2023-04-14T07:02:51.604Z,4.1
2023-04-14T07:04:53.073Z,4.11
2023-04-14T07:08:56.059Z,4.12
2023-04-14T07:10:58.678Z,4.12
2023-04-14T07:15:01.563Z,4.13
2023-04-14T07:21:05.747Z,4.14
2023-04-14T07:27:10.122Z,4.14
2023-04-14T07:31:12.749Z,4.15
2023-04-14T07:33:14.031Z,4.15
2023-04-14T07:37:17.281Z,4.16
2023-04-14T07:41:20.234Z,4.16
2023-04-14T07:43:21.113Z,4.16
2023-04-14T07:45:22.378Z,4.17
2023-04-14T07:49:24.923Z,4.17
2023-04-14T07:51:25.998Z,4.17
2023-04-14T07:53:27.485Z,4.17
2023-04-14T07:57:30.112Z,4.17
2023-04-14T08:03:33.860Z,4.18
2023-04-14T08:04:17.513Z,4.18
2023-04-14T08:08:19.749Z,4.18
2023-04-14T08:14:24.652Z,4.19
2023-04-14T08:18:27.240Z,4.19
2023-04-14T08:20:28.827Z,4.19
2023-04-14T08:24:31.353Z,4.19
2023-04-14T08:28:33.301Z,4.19
2023-04-14T08:30:34.511Z,4.19
2023-04-14T08:34:37.133Z,4.2
2023-04-14T08:40:41.103Z,4.2
2023-04-14T08:46:44.936Z,4.2
2023-04-14T08:50:47.596Z,4.2
2023-04-14T08:56:51.313Z,4.2
2023-04-14T09:00:54.206Z,4.2
2023-04-14T09:02:56.242Z,4.2
2023-04-14T09:06:59.012Z,4.2
2023-04-14T09:11:02.056Z,4.2
2023-04-14T09:13:03.974Z,4.2
2023-04-14T09:17:07.094Z,4.2
2023-04-14T09:21:29.178Z,4.19
2023-04-14T09:23:10.786Z,4.18
2023-04-14T09:27:12.931Z,4.19
2023-04-14T09:29:13.950Z,4.19
2023-04-14T09:31:15.191Z,4.19
2023-04-14T09:33:16.639Z,4.19
2023-04-14T09:39:20.078Z,4.19
2023-04-14T09:41:20.947Z,4.18
2023-04-14T09:45:23.561Z,4.18
2023-04-14T09:49:25.836Z,4.19
2023-04-14T09:55:29.497Z,4.18
2023-04-14T09:59:31.436Z,4.18
2023-04-14T10:01:32.733Z,4.18
2023-04-14T10:05:35.955Z,4.18
2023-04-14T10:09:39.065Z,4.18
2023-04-14T10:11:40.350Z,4.18
2023-04-14T10:15:43.133Z,4.17
2023-04-14T10:21:47.676Z,4.17
2023-04-14T10:27:51.931Z,4.17
2023-04-14T10:31:54.620Z,4.17
2023-04-14T10:37:59.259Z,4.17
2023-04-14T10:42:02.509Z,4.17
2023-04-14T10:44:03.447Z,4.17
2023-04-14T10:48:06.227Z,4.17
2023-04-14T10:52:09.099Z,4.17
2023-04-14T10:54:10.497Z,4.17
2023-04-14T10:58:13.229Z,4.17
2023-04-14T11:04:17.158Z,4.17
2023-04-14T11:10:20.830Z,4.17
2023-04-14T11:14:23.790Z,4.17
2023-04-14T11:20:28.650Z,4.17
2023-04-14T11:24:31.207Z,4.17
2023-04-14T11:26:32.301Z,4.16
2023-04-14T11:30:35.130Z,4.17
2023-04-14T11:34:37.614Z,4.16
2023-04-14T11:36:38.613Z,4.16
2023-04-14T11:40:42.130Z,4.16
2023-04-14T11:44:44.957Z,4.16
2023-04-14T11:46:46.349Z,4.16
2023-04-14T11:50:49.312Z,4.16
2023-04-14T11:52:53.390Z,4.16
2023-04-14T11:58:55.341Z,4.16
2023-04-14T12:02:57.046Z,4.16
2023-04-14T12:04:58.723Z,4.16
2023-04-14T12:09:01.999Z,4.16
2023-04-14T12:13:04.223Z,4.16
2023-04-14T12:15:06.044Z,4.16
2023-04-14T12:19:08.616Z,4.16
2023-04-14T12:23:11.153Z,4.16
2023-04-14T12:25:12.580Z,4.16
2023-04-14T12:29:15.317Z,4.16
2023-04-14T12:33:18.602Z,4.15
2023-04-14T12:35:19.635Z,4.15
2023-04-14T12:39:22.582Z,4.16
2023-04-14T12:45:28.098Z,4.16
2023-04-14T12:51:31.661Z,4.15
2023-04-14T12:55:33.344Z,4.15
2023-04-14T13:01:36.898Z,4.15
2023-04-14T13:05:40.885Z,4.15
2023-04-14T13:07:42.137Z,4.15
2023-04-14T13:11:45.559Z,4.14
2023-04-14T13:16:11.879Z,4.15
2023-04-14T13:17:50.201Z,4.15
2023-04-14T13:21:52.541Z,4.15
2023-04-14T13:27:56.405Z,4.14
2023-04-14T13:34:01.222Z,4.14
2023-04-14T13:38:03.786Z,4.14
2023-04-14T13:44:07.223Z,4.14
2023-04-14T13:48:09.429Z,4.14
2023-04-14T13:50:10.564Z,4.14
2023-04-14T13:54:13.232Z,4.17
2023-04-14T13:58:16.417Z,4.18
2023-04-14T14:00:17.870Z,4.18
2023-04-14T14:04:20.644Z,4.18
2023-04-14T14:08:23.564Z,4.19
2023-04-14T14:10:24.933Z,4.19
2023-04-14T14:14:28.044Z,4.19
2023-04-14T14:16:36.487Z,4.19
2023-04-14T14:18:30.440Z,4.19
2023-04-14T14:20:31.959Z,4.2
2023-04-14T14:26:36.164Z,4.2
2023-04-14T14:28:37.655Z,4.2
2023-04-14T14:32:40.790Z,4.2
2023-04-14T14:36:43.183Z,4.2
2023-04-14T14:42:47.562Z,4.2
2023-04-14T14:46:49.665Z,4.2
2023-04-14T14:49:52.883Z,4.2
2023-04-14T14:53:46.197Z,4.2
2023-04-14T14:57:48.569Z,4.21
2023-04-14T15:02:09.009Z,4.2
2023-04-14T15:03:52.401Z,4.2
2023-04-14T15:09:55.842Z,4.19
2023-04-14T15:13:58.495Z,4.19
2023-04-14T15:20:02.467Z,4.19
2023-04-14T15:24:05.423Z,4.19
2023-04-14T15:30:09.329Z,4.18
2023-04-14T15:34:11.579Z,4.18
2023-04-14T15:36:12.897Z,4.18
2023-04-14T15:40:15.408Z,4.18
2023-04-14T15:46:19.409Z,4.18
2023-04-14T15:52:22.912Z,4.18
2023-04-14T15:56:25.967Z,4.18
2023-04-14T16:02:29.031Z,4.17
2023-04-14T16:06:31.567Z,4.18
2023-04-14T16:08:32.972Z,4.18
2023-04-14T16:12:36.146Z,4.17
2023-04-14T16:16:39.137Z,4.18
2023-04-14T16:18:40.578Z,4.17
2023-04-14T16:22:43.044Z,4.17
2023-04-14T16:26:45.121Z,4.17
2023-04-14T16:28:46.272Z,4.17
2023-04-14T16:32:50.406Z,4.18
2023-04-14T16:34:51.583Z,4.17
2023-04-14T16:38:54.200Z,4.17
2023-04-14T16:44:58.148Z,4.17
2023-04-14T16:51:02.027Z,4.17
2023-04-14T16:55:05.117Z,4.17
2023-04-14T17:01:09.102Z,4.17
2023-04-14T17:05:12.003Z,4.17
2023-04-14T17:07:12.978Z,4.17
2023-04-14T17:11:16.097Z,4.17
2023-04-14T17:15:18.706Z,4.16
2023-04-14T17:17:19.662Z,4.16
2023-04-14T17:21:22.524Z,4.17
2023-04-14T17:27:27.466Z,4.16
2023-04-14T17:33:31.464Z,4.16
2023-04-14T17:37:34.350Z,4.16
2023-04-14T17:43:38.980Z,4.16
2023-04-14T17:47:42.258Z,4.16
2023-04-14T17:49:43.605Z,4.16
2023-04-14T17:53:45.534Z,4.16
2023-04-14T17:57:48.242Z,4.16
2023-04-14T17:59:49.649Z,4.16
2023-04-14T18:03:52.200Z,4.16
2023-04-14T18:09:57.447Z,4.16
2023-04-14T18:16:01.579Z,4.16
2023-04-14T18:20:03.760Z,4.16
2023-04-14T18:30:10.767Z,4.15
2023-04-14T18:32:12.570Z,4.15
2023-04-14T18:36:15.514Z,4.15
2023-04-14T18:40:18.589Z,4.15
2023-04-14T18:42:20.248Z,4.15
2023-04-14T18:46:23.217Z,4.15
2023-04-14T18:52:28.440Z,4.15
2023-04-14T18:58:33.336Z,4.15
2023-04-14T19:02:36.192Z,4.14
2023-04-14T19:08:39.731Z,4.14
2023-04-14T19:14:44.244Z,4.14
2023-04-14T19:18:47.108Z,4.14
2023-04-14T19:22:50.418Z,4.14
2023-04-14T19:24:52.269Z,4.14
2023-04-14T19:28:55.627Z,4.14
2023-04-14T19:32:58.157Z,4.14
2023-04-14T19:34:59.123Z,4.14
2023-04-14T19:39:02.547Z,4.14
2023-04-14T19:41:04.177Z,4.14
2023-04-14T19:45:07.864Z,4.14
2023-04-14T19:51:12.391Z,4.14
2023-04-14T19:55:15.906Z,4.14
2023-04-14T19:57:17.845Z,4.14
2023-04-14T20:01:20.492Z,4.14
2023-04-14T20:05:23.613Z,4.14
2023-04-14T20:07:25.426Z,4.14
2023-04-14T20:11:28.886Z,4.13
2023-04-14T20:15:32.118Z,4.13
2023-04-14T20:17:33.596Z,4.14
2023-04-14T20:21:36.215Z,4.13
2023-04-14T20:23:37.483Z,4.13
2023-04-14T20:25:38.946Z,4.13
2023-04-14T20:27:40.228Z,4.13
2023-04-14T20:33:44.654Z,4.13
2023-04-14T20:39:49.012Z,4.13
2023-04-14T20:43:52.185Z,4.13
2023-04-14T20:49:57.464Z,4.13
2023-04-14T20:56:01.210Z,4.13
2023-04-14T21:00:04.011Z,4.13
2023-04-14T21:06:08.465Z,4.12
2023-04-14T21:12:15.065Z,4.12
2023-04-14T21:16:15.821Z,4.12
2023-04-14T21:20:18.774Z,4.12
2023-04-14T21:22:19.976Z,4.12
2023-04-14T21:26:23.009Z,4.12
2023-04-14T21:30:25.877Z,4.12
2023-04-14T21:32:27.128Z,4.12
2023-04-14T21:35:12.023Z,4.12
2023-04-14T21:37:13.878Z,4.12
2023-04-14T21:43:18.769Z,4.12
2023-04-14T21:49:22.722Z,4.12
2023-04-14T21:53:25.800Z,4.12
2023-04-14T21:59:29.564Z,4.11
2023-04-14T22:03:32.871Z,4.12
2023-04-14T22:05:33.783Z,4.12
2023-04-14T22:09:36.724Z,4.12
2023-04-14T22:13:40.083Z,4.11
2023-04-14T22:15:41.496Z,4.12
2023-04-14T22:19:44.919Z,4.12
2023-04-14T22:25:49.740Z,4.11
2023-04-14T22:31:54.111Z,4.11
2023-04-14T22:35:56.913Z,4.11
2023-04-14T22:42:02.100Z,4.11
2023-04-14T22:46:04.788Z,4.11
2023-04-14T22:48:05.869Z,4.11
2023-04-14T22:52:09.076Z,4.11
2023-04-14T22:56:12.811Z,4.11
2023-04-14T22:58:13.983Z,4.11
2023-04-14T23:02:17.161Z,4.11
2023-04-14T23:08:22.428Z,4.11
2023-04-14T23:14:27.169Z,4.1
2023-04-14T23:18:29.896Z,4.11
2023-04-14T23:24:35.286Z,4.1
2023-04-14T23:28:38.926Z,4.1
2023-04-14T23:30:40.531Z,4.1
2023-04-14T23:34:42.933Z,4.1
2023-04-14T23:38:45.464Z,4.1
2023-04-14T23:40:46.520Z,4.1
2023-04-14T23:44:49.717Z,4.1
2023-04-14T23:50:59.395Z,4.1
2023-04-14T23:56:59.514Z,4.1
